Time;durP1;ratioP1;P1;durP2;ratioP2;P2;SDS_P1;SDS_P2;PMS_P1;PMS_P2;Temp;Humidity;BMP_temperature;BMP_pressure;BME280_temperature;BME280_humidity;BME280_pressure;Samples;Min_cycle;Max_cycle;Signal;HPM_P1;HPM_P2
2023/07/02 00:02:21;;;;;;;22.23;9.43;;;16.50;74.90;;;;;;5019113;28;20045;-80
2023/07/02 00:04:47;;;;;;;25.80;9.98;;;16.40;75.10;;;;;;5051586;28;20127;-79
2023/07/02 00:07:12;;;;;;;19.48;7.88;;;16.40;75.20;;;;;;5051911;28;20128;-80
2023/07/02 00:09:38;;;;;;;21.95;9.25;;;16.40;75.50;;;;;;5035353;28;20481;-79
2023/07/02 00:12:04;;;;;;;22.23;9.18;;;16.20;75.70;;;;;;5051286;28;20404;-78
2023/07/02 00:14:30;;;;;;;17.88;8.57;;;16.20;75.90;;;;;;5051435;28;20071;-78
2023/07/02 00:16:56;;;;;;;24.52;8.18;;;16.20;75.90;;;;;;5034961;28;20120;-78
2023/07/02 00:19:21;;;;;;;25.42;9.50;;;16.20;76.20;;;;;;5018473;28;20063;-78
2023/07/02 00:21:48;;;;;;;20.35;8.82;;;16.10;76.60;;;;;;5052113;28;20048;-79
2023/07/02 00:24:14;;;;;;;21.85;8.73;;;16.10;76.80;;;;;;5034891;28;20102;-78
2023/07/02 00:26:41;;;;;;;18.45;8.63;;;16.10;76.80;;;;;;5035355;28;20459;-80
2023/07/02 00:29:08;;;;;;;24.73;9.27;;;16.00;76.80;;;;;;5021432;28;20091;-79
2023/07/02 00:31:34;;;;;;;25.95;9.75;;;16.10;76.80;;;;;;5038812;28;20045;-78
2023/07/02 00:34:01;;;;;;;23.67;9.35;;;16.10;76.60;;;;;;5022357;28;20041;-78
2023/07/02 00:36:27;;;;;;;30.67;10.02;;;16.00;76.60;;;;;;5055766;28;20063;-78
2023/07/02 00:38:52;;;;;;;21.95;9.02;;;16.00;76.70;;;;;;5038802;28;20123;-79
2023/07/02 00:41:18;;;;;;;28.40;9.65;;;16.00;76.80;;;;;;5055419;28;20132;-80
2023/07/02 00:43:44;;;;;;;24.88;9.65;;;16.00;76.50;;;;;;5022212;28;20037;-79
2023/07/02 00:46:17;;;;;;;25.25;9.75;;;16.00;76.70;;;;;;5038710;28;20126;-78
2023/07/02 00:48:47;;;;;;;28.90;11.27;;;16.00;76.70;;;;;;5022481;28;20135;-78
2023/07/02 00:51:31;;;;;;;26.98;10.07;;;15.90;76.70;;;;;;5038573;28;20519;-78
2023/07/02 00:53:58;;;;;;;29.83;10.10;;;15.80;76.90;;;;;;5055106;28;20044;-78
2023/07/02 00:56:25;;;;;;;28.27;10.65;;;15.90;76.70;;;;;;5038497;28;20485;-79
2023/07/02 00:58:54;;;;;;;25.52;10.45;;;15.80;76.80;;;;;;5022147;28;20040;-80
2023/07/02 01:01:25;;;;;;;23.35;10.93;;;15.80;76.90;;;;;;5038316;28;20063;-78
2023/07/02 01:04:01;;;;;;;22.42;9.82;;;15.70;77.00;;;;;;5021836;28;20040;-78
2023/07/02 01:06:29;;;;;;;25.67;8.90;;;15.70;77.20;;;;;;5038671;28;20041;-78
2023/07/02 01:08:57;;;;;;;27.20;9.55;;;15.80;76.80;;;;;;5021933;28;20037;-78
2023/07/02 01:11:41;;;;;;;24.52;9.15;;;15.70;76.90;;;;;;5038183;28;20041;-78
2023/07/02 01:14:08;;;;;;;23.20;9.05;;;15.70;77.20;;;;;;5054690;28;20501;-78
2023/07/02 01:16:36;;;;;;;25.23;10.25;;;15.70;77.00;;;;;;5054972;28;20456;-80
2023/07/02 01:19:04;;;;;;;22.27;10.30;;;15.60;77.30;;;;;;5054952;28;20045;-78
2023/07/02 01:21:34;;;;;;;23.55;10.07;;;15.70;77.50;;;;;;5038293;28;20469;-80
2023/07/02 01:24:00;;;;;;;29.48;9.75;;;15.60;77.60;;;;;;5054809;28;20163;-79
2023/07/02 01:26:33;;;;;;;26.88;8.73;;;15.60;77.80;;;;;;5037952;28;20542;-78
2023/07/02 01:29:00;;;;;;;23.55;9.00;;;15.60;78.00;;;;;;5054768;28;20515;-80
2023/07/02 01:31:25;;;;;;;21.80;10.43;;;15.70;78.00;;;;;;5054347;28;20477;-79
2023/07/02 01:33:52;;;;;;;22.30;8.98;;;15.60;77.90;;;;;;5038035;28;20098;-78
2023/07/02 01:36:18;;;;;;;26.25;9.75;;;15.60;78.50;;;;;;5054673;28;20484;-79
2023/07/02 01:38:44;;;;;;;26.20;10.10;;;15.50;78.50;;;;;;5054346;28;20045;-78
2023/07/02 01:41:09;;;;;;;22.27;9.68;;;15.50;78.60;;;;;;5037266;28;20036;-78
2023/07/02 01:43:35;;;;;;;21.45;8.95;;;15.50;78.80;;;;;;5037764;28;20532;-78
2023/07/02 01:46:01;;;;;;;27.80;11.48;;;15.50;79.20;;;;;;5037687;28;20041;-78
2023/07/02 01:48:27;;;;;;;26.70;10.35;;;15.40;79.00;;;;;;5021220;28;20047;-79
2023/07/02 01:50:53;;;;;;;26.08;8.45;;;15.40;79.40;;;;;;5056073;28;20040;-78
2023/07/02 01:53:19;;;;;;;20.52;9.13;;;15.40;79.70;;;;;;5040704;28;20041;-78
2023/07/02 01:55:44;;;;;;;22.15;8.63;;;15.30;79.60;;;;;;5057616;28;20119;-78
2023/07/02 01:58:10;;;;;;;19.00;8.73;;;15.30;79.70;;;;;;5041035;28;20032;-78
2023/07/02 02:00:36;;;;;;;30.02;10.30;;;15.40;79.70;;;;;;5073971;28;20036;-78
2023/07/02 02:03:02;;;;;;;24.88;10.65;;;15.30;79.70;;;;;;5057554;28;20050;-78
2023/07/02 02:05:27;;;;;;;27.40;10.45;;;15.20;79.90;;;;;;5057461;28;20393;-78
2023/07/02 02:07:53;;;;;;;25.13;9.07;;;15.30;79.70;;;;;;5040804;28;20040;-80
2023/07/02 02:10:19;;;;;;;22.58;8.98;;;15.30;79.80;;;;;;5073869;28;20486;-78
2023/07/02 02:12:45;;;;;;;25.92;10.27;;;15.30;80.10;;;;;;5056852;28;20045;-79
2023/07/02 02:15:13;;;;;;;25.65;9.65;;;15.30;79.90;;;;;;5073693;28;20508;-78
2023/07/02 02:17:39;;;;;;;31.00;9.40;;;15.20;80.30;;;;;;5073629;28;20500;-78
2023/07/02 02:20:06;;;;;;;26.98;10.10;;;15.30;80.00;;;;;;5056909;28;20048;-78
2023/07/02 02:22:32;;;;;;;24.92;9.13;;;15.20;80.10;;;;;;5040441;28;20040;-79
2023/07/02 02:24:58;;;;;;;22.15;8.07;;;15.20;80.20;;;;;;5040093;28;20090;-79
2023/07/02 02:27:23;;;;;;;26.95;10.00;;;15.20;80.40;;;;;;5056823;28;20124;-79
2023/07/02 02:29:49;;;;;;;21.83;9.60;;;15.20;79.90;;;;;;5073634;28;20055;-78
2023/07/02 02:32:17;;;;;;;23.52;8.77;;;15.10;80.30;;;;;;5056590;28;20036;-78
2023/07/02 02:34:42;;;;;;;22.13;9.15;;;15.10;80.20;;;;;;5056802;28;20036;-78
2023/07/02 02:37:08;;;;;;;22.80;10.13;;;15.20;80.10;;;;;;5073473;28;20618;-78
2023/07/02 02:39:34;;;;;;;22.95;9.57;;;15.20;79.80;;;;;;5056563;28;20040;-78
2023/07/02 02:41:59;;;;;;;27.27;10.38;;;15.20;79.70;;;;;;5039901;28;20045;-80
2023/07/02 02:44:25;;;;;;;20.27;8.32;;;15.20;79.50;;;;;;5073204;28;20044;-79
2023/07/02 02:46:51;;;;;;;23.45;9.15;;;15.30;79.50;;;;;;5056685;28;20040;-79
2023/07/02 02:49:16;;;;;;;23.45;9.25;;;15.30;79.60;;;;;;5056384;28;20507;-78
2023/07/02 02:51:43;;;;;;;24.98;8.40;;;15.20;79.80;;;;;;5038871;28;20044;-78
2023/07/02 02:54:08;;;;;;;26.85;9.82;;;15.20;79.90;;;;;;5023443;28;20119;-78
2023/07/02 02:56:34;;;;;;;20.38;9.07;;;15.30;79.40;;;;;;5072791;28;20119;-80
2023/07/02 02:59:00;;;;;;;24.15;9.35;;;15.30;79.20;;;;;;5056423;28;20036;-78
2023/07/02 03:01:29;;;;;;;18.80;8.18;;;15.40;79.00;;;;;;5039576;28;20594;-79
2023/07/02 03:03:55;;;;;;;23.15;8.20;;;15.40;78.60;;;;;;5040885;28;20113;-79
2023/07/02 03:06:21;;;;;;;23.33;8.13;;;15.40;78.20;;;;;;5056128;28;20036;-79
2023/07/02 03:08:46;;;;;;;23.10;9.15;;;15.40;77.50;;;;;;5056168;28;20044;-78
2023/07/02 03:11:12;;;;;;;22.40;7.90;;;15.50;77.30;;;;;;5055260;28;20051;-79
2023/07/02 03:13:38;;;;;;;23.42;9.35;;;15.50;77.10;;;;;;5038510;28;20369;-79
2023/07/02 03:16:04;;;;;;;21.50;9.32;;;15.50;77.50;;;;;;5055195;28;20040;-78
2023/07/02 03:18:29;;;;;;;24.52;8.82;;;15.50;77.60;;;;;;5054953;28;20048;-79
2023/07/02 03:20:55;;;;;;;19.27;7.47;;;15.50;77.50;;;;;;5038487;28;20033;-78
2023/07/02 03:23:21;;;;;;;22.55;8.38;;;15.60;77.30;;;;;;5055179;28;20069;-80
2023/07/02 03:25:47;;;;;;;22.08;8.48;;;15.60;77.20;;;;;;5055936;28;20040;-79
2023/07/02 03:28:12;;;;;;;21.77;9.75;;;15.60;77.50;;;;;;5055613;28;20047;-79
2023/07/02 03:30:38;;;;;;;26.20;9.50;;;15.60;77.50;;;;;;5055538;28;20036;-78
2023/07/02 03:33:04;;;;;;;26.00;9.15;;;15.50;77.60;;;;;;5055414;28;20045;-79
2023/07/02 03:35:29;;;;;;;23.27;8.95;;;15.60;77.60;;;;;;5038814;28;20127;-78
2023/07/02 03:37:57;;;;;;;23.05;8.55;;;15.70;77.40;;;;;;5072087;28;20115;-79
2023/07/02 03:40:23;;;;;;;21.00;8.40;;;15.70;77.60;;;;;;5055383;28;20036;-79
2023/07/02 03:42:48;;;;;;;23.75;9.25;;;15.70;77.50;;;;;;5055616;28;20370;-78
2023/07/02 03:45:14;;;;;;;23.50;8.75;;;15.70;77.50;;;;;;5021886;28;20373;-78
2023/07/02 03:47:40;;;;;;;24.70;9.75;;;15.70;78.50;;;;;;5039030;28;20051;-78
2023/07/02 03:50:06;;;;;;;22.67;9.68;;;15.60;79.50;;;;;;5055277;28;20051;-78
2023/07/02 03:52:31;;;;;;;30.05;9.23;;;15.70;79.20;;;;;;5071813;28;20079;-79
2023/07/02 03:54:57;;;;;;;25.27;9.75;;;15.60;79.60;;;;;;5055395;28;20067;-78
2023/07/02 03:57:23;;;;;;;27.27;8.10;;;15.50;79.80;;;;;;5055300;28;20557;-79
2023/07/02 03:59:49;;;;;;;21.02;7.20;;;15.50;79.80;;;;;;5072075;28;20095;-78
2023/07/02 04:02:14;;;;;;;22.70;7.55;;;15.40;79.50;;;;;;5055035;28;20424;-78
2023/07/02 04:04:40;;;;;;;23.42;7.43;;;15.30;78.90;;;;;;5055053;28;20089;-77
2023/07/02 04:07:06;;;;;;;15.82;6.65;;;15.30;78.50;;;;;;5038388;28;20036;-78
2023/07/02 04:09:32;;;;;;;18.77;6.68;;;15.30;78.00;;;;;;5022210;28;20091;-78
2023/07/02 04:11:59;;;;;;;21.83;6.60;;;15.20;77.90;;;;;;5055213;28;20393;-78
2023/07/02 04:14:26;;;;;;;17.88;6.97;;;15.20;77.80;;;;;;5054827;28;20106;-78
2023/07/02 04:16:52;;;;;;;20.20;6.75;;;15.20;77.50;;;;;;5038625;28;20041;-78
2023/07/02 04:19:17;;;;;;;18.23;7.70;;;15.10;77.80;;;;;;5038347;28;20442;-78
2023/07/02 04:21:43;;;;;;;17.40;6.93;;;15.10;77.70;;;;;;5054802;28;20033;-78
2023/07/02 04:24:09;;;;;;;15.93;6.10;;;15.00;78.20;;;;;;5055138;28;20080;-78
2023/07/02 04:26:36;;;;;;;16.15;6.93;;;15.10;78.00;;;;;;5056024;28;20032;-78
2023/07/02 04:29:02;;;;;;;22.42;7.20;;;15.00;77.90;;;;;;5055093;28;20048;-78
2023/07/02 04:31:28;;;;;;;18.10;6.30;;;15.10;77.80;;;;;;5038277;28;20153;-78
2023/07/02 04:33:53;;;;;;;19.15;6.97;;;15.20;76.90;;;;;;5054683;28;20037;-78
2023/07/02 04:36:19;;;;;;;17.80;6.35;;;15.10;76.80;;;;;;5038268;28;20070;-78
2023/07/02 04:38:45;;;;;;;18.02;5.97;;;15.20;77.00;;;;;;5055035;28;20182;-79
2023/07/02 04:41:10;;;;;;;15.93;6.80;;;15.20;77.10;;;;;;5055093;28;20037;-79
2023/07/02 04:43:36;;;;;;;22.35;7.20;;;15.30;76.70;;;;;;5054629;28;20040;-78
2023/07/02 04:46:02;;;;;;;19.70;6.80;;;15.30;76.80;;;;;;5038146;28;20045;-77
2023/07/02 04:48:28;;;;;;;22.50;7.60;;;15.40;76.90;;;;;;5054805;28;20044;-78
2023/07/02 04:50:54;;;;;;;16.08;7.20;;;15.40;76.90;;;;;;5038426;28;20066;-78
2023/07/02 04:53:20;;;;;;;17.08;6.72;;;15.40;76.90;;;;;;5054474;28;20536;-78
2023/07/02 04:55:45;;;;;;;17.10;7.30;;;15.50;77.20;;;;;;5037955;28;20120;-78
2023/07/02 04:58:11;;;;;;;14.02;6.05;;;15.50;77.00;;;;;;5038274;28;20075;-78
2023/07/02 05:00:37;;;;;;;19.30;8.20;;;15.50;77.20;;;;;;5054415;28;20481;-77
2023/07/02 05:03:03;;;;;;;17.77;6.72;;;15.50;77.30;;;;;;5037835;28;20090;-78
2023/07/02 05:05:29;;;;;;;18.42;6.80;;;15.60;77.30;;;;;;5054534;28;20123;-79
2023/07/02 05:07:55;;;;;;;20.95;7.93;;;15.50;78.00;;;;;;5071145;28;20048;-78
2023/07/02 05:10:20;;;;;;;19.92;7.57;;;15.60;78.50;;;;;;5054778;28;20048;-79
2023/07/02 05:12:46;;;;;;;14.75;7.13;;;15.50;78.80;;;;;;5054497;28;20464;-79
2023/07/02 05:15:12;;;;;;;16.85;6.95;;;15.50;79.00;;;;;;5055477;28;20056;-79
2023/07/02 05:17:38;;;;;;;14.20;7.25;;;15.50;79.20;;;;;;5058028;28;20484;-78
2023/07/02 05:20:04;;;;;;;18.05;7.80;;;15.40;80.10;;;;;;5058196;28;20036;-78
2023/07/02 05:22:30;;;;;;;18.50;6.97;;;15.30;80.20;;;;;;5058311;28;20036;-79
2023/07/02 05:24:56;;;;;;;23.73;8.90;;;15.30;80.90;;;;;;5074867;28;20044;-78
2023/07/02 05:27:22;;;;;;;17.48;7.35;;;15.30;81.30;;;;;;5041420;28;20048;-77
2023/07/02 05:29:47;;;;;;;16.30;7.13;;;15.20;81.30;;;;;;5058006;28;20131;-78
2023/07/02 05:32:13;;;;;;;15.45;7.35;;;15.30;80.80;;;;;;5074603;28;20043;-77
2023/07/02 05:34:39;;;;;;;13.07;5.38;;;15.30;80.80;;;;;;5057791;28;20405;-77
2023/07/02 05:37:05;;;;;;;16.58;5.97;;;15.30;80.70;;;;;;5057857;28;20039;-78
2023/07/02 05:39:33;;;;;;;20.00;8.18;;;15.30;79.90;;;;;;5057880;28;20093;-78
2023/07/02 05:41:58;;;;;;;14.93;6.18;;;15.40;79.80;;;;;;5057975;28;20059;-78
2023/07/02 05:44:24;;;;;;;19.27;7.53;;;15.50;79.50;;;;;;5074178;28;20123;-78
2023/07/02 05:46:50;;;;;;;19.23;7.82;;;15.60;79.10;;;;;;5024803;28;20094;-79
2023/07/02 05:49:15;;;;;;;17.90;6.90;;;15.70;78.70;;;;;;5074237;28;20044;-78
2023/07/02 05:51:41;;;;;;;13.15;6.03;;;15.90;78.10;;;;;;5057741;28;20036;-78
2023/07/02 05:54:07;;;;;;;17.50;7.78;;;16.00;78.20;;;;;;5040770;28;20482;-79
2023/07/02 05:56:33;;;;;;;16.33;6.45;;;16.10;77.50;;;;;;5041386;28;20040;-77
2023/07/02 05:58:59;;;;;;;14.82;5.78;;;16.10;77.60;;;;;;5057433;28;20082;-79
2023/07/02 06:01:24;;;;;;;17.00;5.30;;;16.00;77.70;;;;;;5073683;28;20068;-79
2023/07/02 06:03:50;;;;;;;13.68;4.68;;;16.00;75.40;;;;;;5057192;28;20121;-79
2023/07/02 06:06:16;;;;;;;18.08;5.05;;;16.00;74.60;;;;;;5073923;28;20094;-78
2023/07/02 06:08:42;;;;;;;12.15;4.28;;;16.00;74.80;;;;;;5040558;28;20040;-78
2023/07/02 06:11:09;;;;;;;12.98;4.10;;;16.00;74.30;;;;;;5040814;28;20127;-78
2023/07/02 06:13:34;;;;;;;10.68;3.95;;;16.10;73.30;;;;;;5073728;28;20052;-79
2023/07/02 06:16:00;;;;;;;9.48;3.58;;;16.20;72.20;;;;;;5057022;28;20477;-79
2023/07/02 06:18:26;;;;;;;10.65;3.92;;;16.20;70.80;;;;;;5040422;28;20032;-80
2023/07/02 06:20:51;;;;;;;9.52;3.90;;;16.20;71.80;;;;;;5073650;28;20041;-80
2023/07/02 06:23:17;;;;;;;13.63;4.43;;;16.40;72.40;;;;;;5040281;28;20131;-80
2023/07/02 06:25:43;;;;;;;12.82;3.90;;;16.50;71.70;;;;;;5023911;28;20048;-79
2023/07/02 06:28:10;;;;;;;15.95;5.00;;;16.50;71.80;;;;;;5056822;28;20074;-80
2023/07/02 06:30:36;;;;;;;8.55;3.60;;;16.60;72.60;;;;;;5056915;28;20063;-80
2023/07/02 06:33:02;;;;;;;14.05;3.80;;;16.60;70.30;;;;;;5056501;28;20381;-79
2023/07/02 06:35:29;;;;;;;10.75;4.82;;;16.70;71.00;;;;;;5056908;28;20047;-80
2023/07/02 06:37:54;;;;;;;11.48;3.70;;;16.70;71.90;;;;;;5040177;28;20110;-81
2023/07/02 06:40:22;;;;;;;12.93;4.13;;;16.70;72.50;;;;;;5023506;28;20086;-80
2023/07/02 06:42:48;;;;;;;17.15;4.78;;;16.80;71.80;;;;;;5056786;28;20036;-81
2023/07/02 06:45:13;;;;;;;12.48;3.90;;;16.70;71.80;;;;;;5040109;28;20059;-80
2023/07/02 06:47:39;;;;;;;9.27;4.18;;;16.70;70.70;;;;;;5039847;28;20445;-80
2023/07/02 06:50:05;;;;;;;10.27;3.83;;;16.80;70.60;;;;;;5056458;28;20042;-80
2023/07/02 06:52:31;;;;;;;14.65;4.63;;;16.90;70.90;;;;;;5056485;28;20050;-80
2023/07/02 06:54:57;;;;;;;8.90;3.90;;;16.80;69.80;;;;;;5056296;28;20040;-80
2023/07/02 06:57:23;;;;;;;12.52;4.13;;;16.90;70.00;;;;;;5056739;28;20503;-80
2023/07/02 06:59:50;;;;;;;11.55;3.63;;;16.90;70.30;;;;;;5039988;28;20374;-81
2023/07/02 07:02:15;;;;;;;12.52;4.93;;;17.00;70.30;;;;;;5023404;28;20076;-81
2023/07/02 07:04:41;;;;;;;10.70;4.45;;;17.00;71.00;;;;;;5023044;28;20103;-81
2023/07/02 07:07:07;;;;;;;12.45;4.30;;;17.00;70.10;;;;;;5023371;28;20047;-81
2023/07/02 07:09:32;;;;;;;14.98;4.35;;;17.00;69.60;;;;;;5056326;28;20501;-81
2023/07/02 07:11:58;;;;;;;11.30;4.43;;;17.00;69.90;;;;;;5039526;28;20037;-81
2023/07/02 07:14:24;;;;;;;12.15;3.83;;;17.10;68.80;;;;;;5022602;28;20134;-80
2023/07/02 07:16:50;;;;;;;12.45;5.28;;;17.20;68.70;;;;;;5055957;28;20111;-80
2023/07/02 07:19:16;;;;;;;11.18;4.32;;;17.30;69.00;;;;;;5039458;28;20044;-80
2023/07/02 07:21:43;;;;;;;9.68;3.38;;;17.40;69.50;;;;;;5055863;28;20048;-82
2023/07/02 07:24:12;;;;;;;11.95;4.18;;;17.40;67.40;;;;;;5039379;28;20040;-81
2023/07/02 07:26:38;;;;;;;10.02;3.88;;;17.40;67.40;;;;;;5055950;28;20059;-81
2023/07/02 07:29:04;;;;;;;9.82;3.88;;;17.30;67.30;;;;;;5056088;28;20480;-81
2023/07/02 07:31:30;;;;;;;8.40;3.45;;;17.20;68.00;;;;;;5039374;28;20133;-80
2023/07/02 07:33:56;;;;;;;9.73;4.03;;;17.20;68.90;;;;;;5037680;28;20473;-80
2023/07/02 07:36:21;;;;;;;13.00;4.38;;;17.30;68.00;;;;;;5053929;28;20543;-80
2023/07/02 07:38:48;;;;;;;11.15;5.00;;;17.20;68.60;;;;;;5070135;28;20427;-82
2023/07/02 07:41:14;;;;;;;11.48;4.53;;;17.20;69.70;;;;;;5054780;28;20481;-80
2023/07/02 07:43:40;;;;;;;10.20;5.03;;;17.30;69.90;;;;;;5038357;28;20051;-80
2023/07/02 07:46:06;;;;;;;14.80;4.45;;;17.30;69.30;;;;;;5072039;28;20040;-79
2023/07/02 07:48:31;;;;;;;14.02;5.75;;;17.20;70.10;;;;;;5055325;28;20131;-82
2023/07/02 07:50:57;;;;;;;8.40;4.05;;;17.10;70.40;;;;;;5039234;28;20075;-80
2023/07/02 07:53:23;;;;;;;11.32;5.05;;;17.10;70.60;;;;;;5055263;28;20138;-81
2023/07/02 07:55:48;;;;;;;10.60;4.90;;;17.00;71.10;;;;;;5055397;28;20028;-80
2023/07/02 07:58:14;;;;;;;10.23;3.80;;;17.00;72.00;;;;;;5054998;28;20076;-80
2023/07/02 08:00:40;;;;;;;16.40;5.53;;;17.20;71.40;;;;;;5071900;28;20064;-80
2023/07/02 08:03:06;;;;;;;12.00;4.95;;;17.30;72.10;;;;;;5022472;28;20082;-80
2023/07/02 08:05:32;;;;;;;10.45;4.15;;;17.40;71.40;;;;;;5022472;28;20130;-80
2023/07/02 08:07:58;;;;;;;8.80;4.10;;;17.50;69.80;;;;;;5055444;28;20037;-81
2023/07/02 08:10:25;;;;;;;11.45;4.40;;;17.60;69.80;;;;;;5038918;28;20083;-81
2023/07/02 08:12:52;;;;;;;11.20;4.28;;;17.70;70.00;;;;;;5022290;28;20043;-80
2023/07/02 08:15:18;;;;;;;15.30;5.20;;;17.60;69.30;;;;;;5054690;28;20060;-80
2023/07/02 08:17:44;;;;;;;10.50;3.92;;;17.60;70.20;;;;;;5038715;28;20040;-80
2023/07/02 08:20:10;;;;;;;11.27;3.35;;;17.70;69.80;;;;;;5055165;28;20396;-80
2023/07/02 08:22:37;;;;;;;10.38;4.25;;;17.90;68.30;;;;;;5055101;28;20048;-80
2023/07/02 08:25:04;;;;;;;12.63;4.45;;;17.90;68.20;;;;;;5054766;28;20041;-79
2023/07/02 08:27:30;;;;;;;13.57;4.50;;;17.90;68.80;;;;;;5055118;28;20071;-80
2023/07/02 08:29:56;;;;;;;14.25;4.80;;;17.80;68.80;;;;;;5071517;28;20066;-79
2023/07/02 08:32:23;;;;;;;16.55;4.80;;;17.80;69.30;;;;;;5055150;28;20055;-79
2023/07/02 08:34:50;;;;;;;9.70;3.85;;;17.80;69.80;;;;;;5071576;28;20492;-81
2023/07/02 08:37:17;;;;;;;11.40;4.53;;;17.80;69.90;;;;;;5055743;28;20033;-81
2023/07/02 08:39:43;;;;;;;13.05;4.25;;;17.60;70.10;;;;;;5055080;28;20036;-81
2023/07/02 08:42:08;;;;;;;10.55;4.35;;;17.60;69.60;;;;;;5055196;28;20052;-81
2023/07/02 08:44:35;;;;;;;10.88;4.90;;;17.70;68.30;;;;;;5038516;28;20123;-81
2023/07/02 08:47:01;;;;;;;12.90;4.28;;;17.80;68.10;;;;;;5071912;28;20230;-81
2023/07/02 08:49:27;;;;;;;8.43;3.30;;;18.00;67.60;;;;;;5056629;28;20040;-81
2023/07/02 08:51:53;;;;;;;11.75;3.92;;;18.10;65.40;;;;;;5058608;28;20036;-80
2023/07/02 08:54:19;;;;;;;11.20;4.53;;;18.30;64.70;;;;;;5075591;28;20071;-80
2023/07/02 08:56:46;;;;;;;13.70;4.22;;;18.40;64.70;;;;;;5058726;28;20098;-80
2023/07/02 08:59:12;;;;;;;12.93;4.32;;;18.50;65.20;;;;;;5058605;28;20089;-80
2023/07/02 09:01:52;;;;;;;8.93;4.47;;;18.60;64.50;;;;;;5075151;28;20123;-78
2023/07/02 09:04:25;;;;;;;10.90;4.38;;;18.60;64.40;;;;;;5058585;28;20455;-79
2023/07/02 09:07:11;;;;;;;14.63;4.57;;;18.70;65.20;;;;;;5041788;28;20044;-80
2023/07/02 09:09:48;;;;;;;11.55;4.45;;;18.80;64.30;;;;;;5058216;28;20135;-80
2023/07/02 09:12:24;;;;;;;13.63;4.93;;;18.70;64.20;;;;;;5057831;28;20080;-79
2023/07/02 09:15:02;;;;;;;9.20;3.08;;;18.50;65.10;;;;;;5041426;28;20500;-79
2023/07/02 09:17:33;;;;;;;9.32;4.28;;;18.30;64.80;;;;;;5058449;28;20466;-80
2023/07/02 09:20:01;;;;;;;10.23;3.80;;;18.20;65.00;;;;;;5058162;28;20044;-80
2023/07/02 09:22:27;;;;;;;11.68;3.67;;;18.30;66.30;;;;;;5075129;28;20215;-79
2023/07/02 09:24:54;;;;;;;11.10;4.05;;;18.50;65.50;;;;;;5057883;28;20480;-80
2023/07/02 09:27:21;;;;;;;9.77;3.92;;;18.50;65.70;;;;;;5025145;28;20040;-79
2023/07/02 09:29:52;;;;;;;10.60;3.38;;;18.40;64.90;;;;;;5057893;28;20051;-78
2023/07/02 09:32:26;;;;;;;14.40;3.78;;;18.30;64.70;;;;;;5074489;28;20496;-77
2023/07/02 09:34:54;;;;;;;8.07;3.35;;;18.50;63.80;;;;;;5058128;28;20044;-78
2023/07/02 09:37:19;;;;;;;11.13;4.00;;;18.50;63.70;;;;;;5058386;28;20072;-75
2023/07/02 09:39:51;;;;;;;8.30;3.50;;;18.50;64.00;;;;;;5057635;28;20471;-79
2023/07/02 09:42:19;;;;;;;13.55;3.95;;;18.80;64.80;;;;;;5058071;28;20110;-77
2023/07/02 09:44:46;;;;;;;7.60;3.50;;;19.00;63.60;;;;;;5058072;28;20044;-78
2023/07/02 09:47:13;;;;;;;11.93;4.60;;;19.10;62.10;;;;;;5057713;28;20051;-77
2023/07/02 09:49:46;;;;;;;11.77;4.03;;;19.00;62.70;;;;;;5057812;28;20049;-79
2023/07/02 09:52:14;;;;;;;13.15;4.80;;;18.90;61.80;;;;;;5074091;28;20127;-78
2023/07/02 09:54:41;;;;;;;12.02;4.40;;;18.90;63.00;;;;;;5073982;28;20040;-78
2023/07/02 09:57:07;;;;;;;10.85;3.85;;;18.90;64.10;;;;;;5057328;28;20044;-81
2023/07/02 09:59:34;;;;;;;10.40;4.15;;;19.00;63.90;;;;;;5024213;28;20033;-79
2023/07/02 10:01:59;;;;;;;12.13;3.85;;;19.00;63.80;;;;;;5040184;28;20044;-79
2023/07/02 10:04:25;;;;;;;7.43;3.08;;;19.00;62.40;;;;;;5057257;28;20041;-80
2023/07/02 10:06:53;;;;;;;11.07;3.95;;;19.10;60.60;;;;;;5057286;28;20055;-79
2023/07/02 10:09:21;;;;;;;11.63;4.85;;;19.20;61.50;;;;;;5057192;28;20046;-79
2023/07/02 10:11:47;;;;;;;8.57;3.28;;;19.30;62.00;;;;;;5057359;28;20040;-80
2023/07/02 10:14:13;;;;;;;8.77;3.15;;;19.30;61.00;;;;;;5073560;28;20040;-80
2023/07/02 10:16:55;;;;;;;9.07;3.38;;;19.30;58.90;;;;;;5056851;28;20106;-79
2023/07/02 10:19:21;;;;;;;12.55;4.78;;;19.20;58.80;;;;;;5073688;28;20388;-80
2023/07/02 10:22:00;;;;;;;10.45;3.75;;;19.00;61.00;;;;;;5040673;28;20132;-80
2023/07/02 10:24:26;;;;;;;11.73;4.07;;;19.00;62.60;;;;;;5073453;28;20036;-81
2023/07/02 10:26:56;;;;;;;10.70;3.53;;;18.90;62.80;;;;;;5040271;28;20131;-81
2023/07/02 10:29:27;;;;;;;9.40;3.30;;;18.90;63.50;;;;;;5057021;28;20484;-81
2023/07/02 10:31:57;;;;;;;9.40;3.78;;;18.80;64.20;;;;;;5040357;28;20090;-82
2023/07/02 10:34:29;;;;;;;10.18;4.13;;;18.90;63.10;;;;;;5040076;28;20072;-82
2023/07/02 10:36:55;;;;;;;11.18;3.50;;;19.00;62.10;;;;;;5073633;28;20095;-81
2023/07/02 10:39:21;;;;;;;8.02;3.22;;;19.20;61.60;;;;;;5073477;28;20451;-82
2023/07/02 10:41:46;;;;;;;10.63;4.22;;;19.20;61.90;;;;;;5056737;28;20032;-83
2023/07/02 10:44:12;;;;;;;11.77;4.18;;;19.10;62.00;;;;;;5073131;28;20485;-82
2023/07/02 10:46:48;;;;;;;9.70;4.13;;;19.10;63.20;;;;;;5039859;28;20029;-81
2023/07/02 10:49:20;;;;;;;9.10;3.47;;;18.90;64.00;;;;;;5072987;28;20067;-83
2023/07/02 10:52:07;;;;;;;13.63;3.67;;;18.80;62.70;;;;;;5073133;28;20314;-82
2023/07/02 10:54:44;;;;;;;8.35;3.88;;;19.00;62.30;;;;;;5056592;28;20135;-82
2023/07/02 10:57:12;;;;;;;10.60;3.50;;;19.20;63.40;;;;;;5057233;28;20040;-80
2023/07/02 10:59:38;;;;;;;7.18;2.38;;;19.30;63.10;;;;;;5056182;28;20041;-81
2023/07/02 11:02:04;;;;;;;10.60;3.00;;;19.50;61.00;;;;;;5039552;28;20090;-82
2023/07/02 11:04:31;;;;;;;8.50;4.28;;;19.70;60.20;;;;;;5039729;28;20083;-82
2023/07/02 11:07:00;;;;;;;8.73;3.03;;;19.90;60.70;;;;;;5039961;28;20044;-82
2023/07/02 11:09:26;;;;;;;11.13;3.53;;;19.80;60.70;;;;;;5057492;28;20076;-83
2023/07/02 11:12:00;;;;;;;10.38;4.53;;;19.60;62.20;;;;;;5073035;28;20048;-82
2023/07/02 11:14:30;;;;;;;;;;;19.60;60.80;;;;;;5056738;28;20044;-83
2023/07/02 11:16:57;;;;;;;10.52;3.35;;;19.60;60.20;;;;;;5056216;28;20419;-83
2023/07/02 11:19:23;;;;;;;10.23;2.90;;;19.60;58.80;;;;;;5039394;28;20039;-81
2023/07/02 11:21:56;;;;;;;6.03;2.33;;;19.90;58.80;;;;;;5039529;28;20469;-83
2023/07/02 11:24:35;;;;;;;9.68;3.35;;;19.90;55.80;;;;;;5040671;28;20417;-83
2023/07/02 11:27:03;;;;;;;9.60;3.47;;;20.30;57.50;;;;;;5072871;28;20040;-83
2023/07/02 11:29:30;;;;;;;10.23;3.00;;;20.50;57.80;;;;;;5057298;28;20079;-83
2023/07/02 11:32:09;;;;;;;8.27;2.80;;;20.80;56.70;;;;;;5039966;28;20041;-82
2023/07/02 11:34:36;;;;;;;7.10;3.50;;;20.90;55.40;;;;;;5039382;28;20403;-82
2023/07/02 11:37:04;;;;;;;9.80;3.00;;;20.90;54.40;;;;;;5055913;28;20396;-83
2023/07/02 11:39:30;;;;;;;6.90;2.80;;;20.80;54.90;;;;;;5055527;28;20036;-83
2023/07/02 11:41:56;;;;;;;6.13;3.33;;;20.50;56.00;;;;;;5055455;28;20178;-83
2023/07/02 11:44:22;;;;;;;11.18;4.00;;;20.40;57.30;;;;;;5072119;28;20123;-82
2023/07/02 11:46:48;;;;;;;10.65;4.15;;;20.30;56.20;;;;;;5055466;28;20033;-83
2023/07/02 11:49:14;;;;;;;11.32;4.45;;;20.00;57.30;;;;;;5038841;28;20046;-83
2023/07/02 11:51:41;;;;;;;9.52;3.55;;;19.90;56.70;;;;;;5055213;28;20397;-83
2023/07/02 11:54:07;;;;;;;6.90;3.00;;;19.80;56.70;;;;;;5055213;28;20048;-82
2023/07/02 11:56:33;;;;;;;7.22;3.40;;;19.60;56.40;;;;;;5038821;28;20127;-82
2023/07/02 11:58:59;;;;;;;10.50;3.50;;;19.40;57.80;;;;;;5055293;28;20036;-82
2023/07/02 12:01:25;;;;;;;13.55;3.53;;;19.30;59.10;;;;;;5055232;28;20090;-81
2023/07/02 12:03:51;;;;;;;8.45;3.63;;;19.10;59.00;;;;;;5036772;28;20048;-81
2023/07/02 12:06:17;;;;;;;10.15;3.88;;;19.20;59.60;;;;;;5050029;28;20037;-80
2023/07/02 12:08:42;;;;;;;12.95;4.60;;;19.10;59.30;;;;;;5044235;28;20032;-81
2023/07/02 12:11:08;;;;;;;9.20;3.80;;;19.10;60.30;;;;;;5010623;28;20037;-82
2023/07/02 12:13:34;;;;;;;13.88;3.90;;;19.00;60.00;;;;;;5041812;28;20037;-82
2023/07/02 12:16:00;;;;;;;10.65;3.88;;;18.90;59.70;;;;;;5041735;28;20045;-83
2023/07/02 12:18:29;;;;;;;10.77;4.03;;;18.70;60.90;;;;;;5044626;28;20040;-81
2023/07/02 12:20:55;;;;;;;17.13;4.72;;;18.90;62.20;;;;;;5045754;28;20734;-82
2023/07/02 12:23:21;;;;;;;9.40;4.32;;;18.90;62.50;;;;;;5043448;28;20037;-82
2023/07/02 12:25:46;;;;;;;11.23;4.93;;;18.90;62.30;;;;;;5025619;28;20412;-82
2023/07/02 12:28:12;;;;;;;12.13;3.80;;;18.90;63.20;;;;;;5027381;28;20129;-81
2023/07/02 12:30:38;;;;;;;12.50;4.28;;;18.90;63.00;;;;;;5020775;28;20045;-82
2023/07/02 12:33:04;;;;;;;11.73;5.13;;;18.90;63.80;;;;;;5046814;28;20037;-81
2023/07/02 12:35:29;;;;;;;11.27;3.85;;;18.80;63.10;;;;;;5028442;28;20489;-82
2023/07/02 12:37:55;;;;;;;10.82;4.75;;;18.70;60.90;;;;;;5054873;28;20036;-82